Time;durP1;ratioP1;P1;durP2;ratioP2;P2;SDS_P1;SDS_P2;PMS_P1;PMS_P2;Temp;Humidity;BMP_temperature;BMP_pressure;BME280_temperature;BME280_humidity;BME280_pressure;Samples;Min_cycle;Max_cycle;Signal;HPM_P1;HPM_P2
2023/06/06 00:00:21;;;;;;;6.45;3.17;;;;;;;17.66;55.06;100471.56;4942605;29;20101;-71
2023/06/06 00:02:48;;;;;;;3.92;3.03;;;;;;;17.61;55.38;100472.88;4923729;29;20047;-72
2023/06/06 00:05:17;;;;;;;4.10;2.65;;;;;;;17.60;55.73;100476.50;4940044;29;20422;-71
2023/06/06 00:07:45;;;;;;;4.22;2.97;;;;;;;17.61;55.59;100479.06;4936190;29;20466;-71
2023/06/06 00:10:14;;;;;;;3.42;2.67;;;;;;;17.62;55.82;100472.75;4933039;29;20051;-72
2023/06/06 00:12:52;;;;;;;4.75;3.25;;;;;;;17.65;56.01;100469.84;4940163;29;20047;-71
2023/06/06 00:15:19;;;;;;;3.90;2.63;;;;;;;17.64;56.18;100470.81;4941264;29;20135;-72
2023/06/06 00:17:55;;;;;;;8.20;2.65;;;;;;;17.61;56.48;100473.72;4926611;29;20514;-73
2023/06/06 00:20:22;;;;;;;5.40;3.15;;;;;;;17.60;56.61;100473.84;4932723;29;20053;-71
2023/06/06 00:22:53;;;;;;;4.35;3.08;;;;;;;17.52;56.77;100469.03;4948093;29;20044;-72
2023/06/06 00:25:21;;;;;;;4.47;3.00;;;;;;;17.49;57.52;100464.75;4946369;29;20051;-72
2023/06/06 00:27:49;;;;;;;3.70;3.00;;;;;;;17.53;58.00;100478.78;4946334;29;20091;-72
2023/06/06 00:30:16;;;;;;;6.15;3.20;;;;;;;17.53;57.97;100478.78;4941955;29;20055;-74
2023/06/06 00:32:43;;;;;;;7.03;3.75;;;;;;;17.51;58.16;100484.25;4948711;29;20069;-72
2023/06/06 00:35:10;;;;;;;4.65;3.10;;;;;;;17.49;58.67;100480.81;4932121;29;20047;-71
2023/06/06 00:37:39;;;;;;;11.77;3.47;;;;;;;17.45;58.74;100476.69;4947173;29;20043;-71
2023/06/06 00:40:07;;;;;;;5.50;3.28;;;;;;;17.40;58.91;100470.81;4947030;29;20071;-71
2023/06/06 00:42:33;;;;;;;3.38;3.08;;;;;;;17.42;59.41;100476.06;4944087;29;20053;-71
2023/06/06 00:45:00;;;;;;;6.45;3.08;;;;;;;17.42;59.45;100484.09;4919634;29;20050;-72
2023/06/06 00:47:27;;;;;;;9.23;3.63;;;;;;;17.37;59.97;100480.88;4934334;28;20051;-71
2023/06/06 00:49:57;;;;;;;5.47;2.80;;;;;;;17.33;60.26;100484.75;4943938;29;20094;-72
2023/06/06 00:52:24;;;;;;;6.18;3.15;;;;;;;17.25;60.41;100474.63;4934282;29;20074;-73
2023/06/06 00:54:52;;;;;;;4.85;3.38;;;;;;;17.24;60.74;100477.41;4934220;29;20044;-72
2023/06/06 00:57:20;;;;;;;5.20;3.25;;;;;;;17.26;60.69;100478.16;4942206;29;20047;-72
2023/06/06 00:59:47;;;;;;;4.80;3.13;;;;;;;17.25;60.83;100488.00;4929550;29;20537;-72
2023/06/06 01:02:17;;;;;;;7.07;4.07;;;;;;;17.19;60.95;100489.28;4947137;29;20049;-72
2023/06/06 01:04:45;;;;;;;;;;;;;;;17.14;60.79;100490.59;4928301;29;20675;-71
2023/06/06 01:07:17;;;;;;;3.45;3.00;;;;;;;17.06;60.92;100483.13;4933271;29;19928;-71
2023/06/06 01:09:45;;;;;;;4.50;3.20;;;;;;;17.04;61.13;100492.22;4927539;29;20054;-73
2023/06/06 01:12:23;;;;;;;7.57;3.20;;;;;;;17.00;61.30;100491.59;4932476;29;20047;-72
2023/06/06 01:15:07;;;;;;;5.07;3.33;;;;;;;16.97;61.65;100499.84;4946829;29;20056;-72
2023/06/06 01:17:36;;;;;;;4.90;3.22;;;;;;;16.88;61.69;100487.13;4935494;29;20131;-72
2023/06/06 01:20:06;;;;;;;4.13;3.03;;;;;;;16.88;61.58;100488.94;4932684;29;20044;-71
2023/06/06 01:22:35;;;;;;;3.65;3.10;;;;;;;16.88;61.73;100489.78;4944633;29;20435;-71
2023/06/06 01:25:04;;;;;;;5.28;3.00;;;;;;;16.86;61.83;100494.38;4933892;29;20128;-72
2023/06/06 01:27:33;;;;;;;5.38;3.47;;;;;;;16.82;61.78;100492.94;4948833;29;20075;-71
2023/06/06 01:30:03;;;;;;;4.57;3.05;;;;;;;16.84;62.09;100497.16;4933392;29;20162;-72
2023/06/06 01:32:46;;;;;;;4.88;3.30;;;;;;;16.83;62.23;100486.63;4933527;29;20048;-71
2023/06/06 01:35:18;;;;;;;3.40;3.00;;;;;;;16.90;62.68;100498.56;4943840;29;20062;-71
2023/06/06 01:37:59;;;;;;;4.47;3.05;;;;;;;16.88;61.66;100489.78;4944404;29;20545;-71
2023/06/06 01:40:29;;;;;;;4.18;3.20;;;;;;;16.86;61.54;100486.38;4946492;29;20476;-71
2023/06/06 01:42:57;;;;;;;4.85;2.70;;;;;;;16.87;62.08;100498.78;4916614;29;20182;-71
2023/06/06 01:45:28;;;;;;;5.22;3.30;;;;;;;16.82;62.16;100496.47;4929482;29;20048;-72
2023/06/06 01:47:56;;;;;;;4.97;3.05;;;;;;;16.78;62.04;100494.09;4935957;29;20121;-72
2023/06/06 01:50:23;;;;;;;5.75;3.33;;;;;;;16.74;62.38;100495.28;4929811;29;20529;-72
2023/06/06 01:52:53;;;;;;;5.78;3.40;;;;;;;16.65;62.83;100488.78;4944248;29;20066;-71
2023/06/06 01:55:20;;;;;;;;;;;;;;;16.65;63.10;100494.13;4942200;29;20043;-71
2023/06/06 01:57:48;;;;;;;5.47;3.03;;;;;;;16.62;63.65;100498.78;4934451;29;19946;-72
2023/06/06 02:00:16;;;;;;;4.60;3.00;;;;;;;16.67;63.43;100502.88;4943446;29;20078;-71
2023/06/06 02:02:46;;;;;;;4.55;2.80;;;;;;;16.66;63.37;100503.00;4937269;29;20047;-71
2023/06/06 02:05:14;;;;;;;3.95;2.70;;;;;;;16.66;63.05;100503.00;4947210;29;20059;-71
2023/06/06 02:07:42;;;;;;;4.97;2.80;;;;;;;16.59;63.42;100504.34;4948061;29;20051;-71
2023/06/06 02:10:10;;;;;;;3.50;2.83;;;;;;;16.50;63.53;100500.50;4956690;29;20055;-71
2023/06/06 02:12:36;;;;;;;5.00;3.25;;;;;;;16.45;64.39;100503.50;4951243;29;20054;-71
2023/06/06 02:15:05;;;;;;;6.05;3.38;;;;;;;16.42;65.16;100497.50;4951572;29;20054;-72
2023/06/06 02:17:32;;;;;;;3.35;2.85;;;;;;;16.45;64.69;100490.13;4944808;29;20063;-71
2023/06/06 02:19:59;;;;;;;4.78;3.10;;;;;;;16.44;64.43;100493.75;4928168;29;20051;-71
2023/06/06 02:22:26;;;;;;;5.85;3.33;;;;;;;16.42;65.23;100498.34;4941453;29;20059;-71
2023/06/06 02:24:54;;;;;;;4.15;2.88;;;;;;;16.42;65.50;100497.50;4957964;29;20047;-71
2023/06/06 02:27:23;;;;;;;4.55;3.05;;;;;;;16.42;65.26;100508.19;4945297;29;20058;-71
2023/06/06 02:29:50;;;;;;;4.57;2.95;;;;;;;16.35;65.40;100502.44;4930729;29;20050;-71
2023/06/06 02:32:18;;;;;;;4.93;3.25;;;;;;;16.25;66.18;100500.47;4945710;29;20059;-72
2023/06/06 02:34:45;;;;;;;7.72;3.28;;;;;;;16.25;66.44;100506.69;4930525;29;20536;-71
2023/06/06 02:37:11;;;;;;;3.42;2.90;;;;;;;16.22;66.81;100506.88;4948622;28;20134;-74
2023/06/06 02:39:38;;;;;;;5.47;2.97;;;;;;;16.16;66.90;100504.66;4933327;29;20477;-71
2023/06/06 02:42:06;;;;;;;3.83;3.17;;;;;;;16.16;66.77;100501.97;4928299;29;20467;-71
2023/06/06 02:44:34;;;;;;;4.22;3.30;;;;;;;16.14;66.62;100503.91;4946885;29;20059;-71
2023/06/06 02:47:01;;;;;;;3.83;3.00;;;;;;;16.09;67.09;100500.66;4935101;29;20111;-71
2023/06/06 02:49:28;;;;;;;5.90;3.10;;;;;;;16.10;67.51;100505.06;4939996;29;20315;-71
2023/06/06 02:51:56;;;;;;;6.22;3.25;;;;;;;16.07;67.42;100498.09;4934175;23;20134;-72
2023/06/06 02:54:23;;;;;;;6.28;3.22;;;;;;;16.12;68.42;100500.47;4928059;29;20075;-71
2023/06/06 02:56:50;;;;;;;6.93;3.42;;;;;;;16.09;67.95;100500.66;4927552;29;20165;-72
2023/06/06 02:59:16;;;;;;;5.20;3.20;;;;;;;16.14;68.35;100515.44;4925785;29;20048;-73
2023/06/06 03:01:48;;;;;;;5.60;3.42;;;;;;;16.18;68.28;100505.41;4917037;29;20112;-72
2023/06/06 03:04:16;;;;;;;3.97;2.83;;;;;;;16.07;68.32;100507.94;4911854;29;20048;-72
2023/06/06 03:06:48;;;;;;;3.78;3.10;;;;;;;16.06;68.60;100508.88;4924163;29;20099;-72
2023/06/06 03:09:14;;;;;;;5.05;2.92;;;;;;;16.04;68.68;100498.34;4913595;29;20055;-72
2023/06/06 03:11:41;;;;;;;5.47;3.35;;;;;;;16.13;68.41;100497.69;4936186;29;20055;-71
2023/06/06 03:14:10;;;;;;;6.30;3.30;;;;;;;16.09;68.17;100498.00;4926428;29;20067;-70
2023/06/06 03:16:36;;;;;;;6.13;3.28;;;;;;;16.14;68.25;100503.91;4928915;29;20123;-70
2023/06/06 03:19:03;;;;;;;6.65;3.63;;;;;;;16.13;68.03;100508.38;4913732;29;20487;-74
2023/06/06 03:21:30;;;;;;;5.32;3.40;;;;;;;16.05;68.22;100501.88;4900927;29;20471;-75
2023/06/06 03:23:57;;;;;;;4.50;2.90;;;;;;;16.05;68.95;100504.53;4926033;29;20458;-71
2023/06/06 03:26:26;;;;;;;4.97;3.42;;;;;;;16.09;69.16;100503.34;4919342;29;20064;-72
2023/06/06 03:28:56;;;;;;;4.43;3.25;;;;;;;16.06;69.19;100508.88;4930590;29;20578;-72
2023/06/06 03:31:23;;;;;;;4.13;3.40;;;;;;;16.02;69.36;100510.06;4931546;29;20116;-72
2023/06/06 03:33:51;;;;;;;4.18;3.10;;;;;;;15.95;69.54;100512.28;4938805;29;20422;-70
2023/06/06 03:36:19;;;;;;;5.22;3.05;;;;;;;15.94;69.70;100501.72;4930245;29;20538;-73
2023/06/06 03:38:46;;;;;;;4.03;3.10;;;;;;;15.98;69.97;100511.22;4924353;29;20396;-70
2023/06/06 03:41:14;;;;;;;6.80;3.08;;;;;;;16.04;68.69;100516.19;4922378;29;20061;-71
2023/06/06 03:43:44;;;;;;;3.72;3.10;;;;;;;16.05;67.76;100520.56;4927818;29;20052;-71
2023/06/06 03:46:11;;;;;;;5.07;2.70;;;;;;;16.07;67.29;100524.81;4905766;29;20057;-72
2023/06/06 03:48:38;;;;;;;4.85;3.20;;;;;;;16.04;67.30;100516.19;4915218;29;20099;-71
2023/06/06 03:51:05;;;;;;;4.90;3.28;;;;;;;16.09;66.97;100524.72;4922644;29;20110;-72
2023/06/06 03:53:32;;;;;;;4.32;3.28;;;;;;;16.08;67.64;100525.66;4926374;29;20048;-72
2023/06/06 03:55:59;;;;;;;4.93;2.85;;;;;;;16.07;68.33;100529.31;4909770;29;20138;-70
2023/06/06 03:58:26;;;;;;;6.82;3.28;;;;;;;16.08;67.89;100528.34;4930047;29;20099;-71
2023/06/06 04:00:56;;;;;;;5.63;3.10;;;;;;;16.02;67.83;100510.94;4929058;29;20052;-71
2023/06/06 04:03:23;;;;;;;5.28;3.15;;;;;;;16.14;69.40;100526.13;4921594;29;20134;-72
2023/06/06 04:05:51;;;;;;;4.57;3.20;;;;;;;16.17;70.11;100519.72;4931514;29;20074;-71
2023/06/06 04:08:18;;;;;;;4.05;2.92;;;;;;;16.19;69.55;100515.13;4923168;29;20048;-72
2023/06/06 04:10:47;;;;;;;3.33;2.80;;;;;;;16.07;68.94;100502.59;4927365;29;20051;-72
2023/06/06 04:13:15;;;;;;;4.03;3.58;;;;;;;16.13;69.80;100518.22;4895577;29;20047;-71
2023/06/06 04:15:42;;;;;;;4.95;3.40;;;;;;;16.09;69.29;100495.31;4930252;29;20135;-68
2023/06/06 04:18:26;;;;;;;4.28;3.22;;;;;;;16.19;68.13;100520.47;4929306;29;20498;-72
2023/06/06 04:20:57;;;;;;;6.75;3.40;;;;;;;16.25;68.86;100520.03;4919046;29;20048;-73
2023/06/06 04:23:28;;;;;;;5.35;3.20;;;;;;;16.26;67.23;100524.44;4910212;29;20058;-72
2023/06/06 04:25:56;;;;;;;4.70;2.90;;;;;;;16.27;66.20;100523.47;4922496;29;20052;-72
2023/06/06 04:28:22;;;;;;;5.38;3.33;;;;;;;16.25;66.48;100516.50;4924457;29;20236;-72
2023/06/06 04:30:52;;;;;;;4.50;3.13;;;;;;;16.33;67.63;100525.72;4927470;29;20048;-70
2023/06/06 04:33:19;;;;;;;5.63;3.17;;;;;;;16.38;68.15;100523.56;4925961;29;20545;-71
2023/06/06 04:35:46;;;;;;;5.88;3.20;;;;;;;16.38;68.22;100518.22;4928783;29;20044;-73
2023/06/06 04:38:18;;;;;;;4.60;3.05;;;;;;;16.38;68.18;100518.22;4914872;29;20050;-70
2023/06/06 04:40:50;;;;;;;4.22;2.92;;;;;;;16.40;68.05;100513.63;4916742;29;20058;-71
2023/06/06 04:43:32;;;;;;;4.43;2.90;;;;;;;16.49;66.61;100529.06;4922472;29;20119;-70
2023/06/06 04:46:01;;;;;;;3.70;3.10;;;;;;;16.46;66.11;100517.72;4936384;29;20127;-72
2023/06/06 04:48:28;;;;;;;3.22;2.92;;;;;;;16.45;66.40;100519.53;4915532;29;20047;-70
2023/06/06 04:50:56;;;;;;;7.00;3.45;;;;;;;16.51;67.04;100528.09;4928004;29;20047;-72
2023/06/06 04:53:23;;;;;;;4.10;3.00;;;;;;;16.53;67.02;100524.31;4908833;29;20171;-71
2023/06/06 04:55:53;;;;;;;5.10;2.90;;;;;;;16.57;66.75;100523.16;4925581;29;20502;-70
2023/06/06 04:58:21;;;;;;;6.80;3.40;;;;;;;16.61;66.02;100526.47;4916706;29;20074;-72
2023/06/06 05:00:49;;;;;;;7.35;3.25;;;;;;;16.61;66.11;100519.31;4912795;29;20044;-72
2023/06/06 05:03:19;;;;;;;6.70;3.05;;;;;;;16.69;66.22;100529.50;4912492;29;20055;-70
2023/06/06 05:05:48;;;;;;;6.63;3.20;;;;;;;16.69;65.80;100518.78;4928151;29;20048;-72
2023/06/06 05:08:15;;;;;;;6.47;3.22;;;;;;;16.78;65.00;100524.38;4934262;29;20112;-71
2023/06/06 05:10:42;;;;;;;6.00;3.08;;;;;;;16.88;64.70;100532.59;4925716;29;20139;-70
2023/06/06 05:13:12;;;;;;;4.78;2.92;;;;;;;16.91;64.91;100523.50;4912221;29;20082;-72
2023/06/06 05:15:39;;;;;;;5.20;2.78;;;;;;;17.05;61.84;100531.38;4906783;29;20144;-70
2023/06/06 05:18:07;;;;;;;5.60;3.03;;;;;;;17.12;61.35;100538.88;4927766;29;20532;-72
2023/06/06 05:20:33;;;;;;;5.00;2.97;;;;;;;17.12;60.08;100520.16;4925615;29;20506;-70
2023/06/06 05:23:00;;;;;;;8.70;3.45;;;;;;;17.23;59.24;100540.78;4901508;29;20147;-69
2023/06/06 05:25:27;;;;;;;5.38;2.65;;;;;;;17.17;58.58;100525.16;4928409;29;20052;-71
2023/06/06 05:27:55;;;;;;;4.82;3.47;;;;;;;17.32;59.93;100537.41;4931734;29;20465;-70
2023/06/06 05:30:21;;;;;;;5.53;2.97;;;;;;;17.36;60.24;100532.69;4914309;29;20040;-69
2023/06/06 05:32:49;;;;;;;5.05;2.92;;;;;;;17.43;57.69;100528.63;4937458;29;20070;-72
2023/06/06 05:35:16;;;;;;;4.88;3.03;;;;;;;17.57;58.84;100538.31;4924822;29;20055;-72
2023/06/06 05:37:49;;;;;;;4.43;2.67;;;;;;;17.60;58.57;100524.72;4912553;29;20391;-71
2023/06/06 05:40:17;;;;;;;4.45;2.88;;;;;;;17.71;58.04;100533.69;4929710;29;20048;-72
2023/06/06 05:42:44;;;;;;;5.28;3.10;;;;;;;17.78;56.33;100537.63;4927360;29;20070;-72
2023/06/06 05:45:11;;;;;;;4.38;2.97;;;;;;;17.86;56.35;100523.66;4910194;29;20075;-72
2023/06/06 05:47:38;;;;;;;7.70;3.13;;;;;;;17.98;55.97;100524.53;4933843;29;20109;-73
2023/06/06 05:50:09;;;;;;;3.65;2.58;;;;;;;18.15;57.37;100537.50;4937097;29;20055;-74
2023/06/06 05:52:38;;;;;;;6.03;3.10;;;;;;;18.14;55.25;100514.34;4920367;29;20076;-70
2023/06/06 05:55:07;;;;;;;4.25;2.45;;;;;;;18.35;53.58;100536.84;4919298;29;20073;-71
2023/06/06 05:57:34;;;;;;;4.63;2.72;;;;;;;18.40;52.30;100526.63;4924933;29;20055;-72
2023/06/06 06:00:03;;;;;;;5.97;2.83;;;;;;;18.47;52.55;100524.31;4936084;29;20084;-70
2023/06/06 06:02:30;;;;;;;5.20;2.58;;;;;;;18.56;53.43;100542.38;4934987;29;20040;-71
2023/06/06 06:04:57;;;;;;;8.40;3.45;;;;;;;18.67;54.36;100529.03;4922334;29;20068;-72
2023/06/06 06:07:28;;;;;;;6.85;3.50;;;;;;;18.87;53.10;100540.88;4907092;29;20043;-72
2023/06/06 06:09:56;;;;;;;5.78;2.72;;;;;;;19.13;51.50;100536.09;4926050;29;20047;-71
2023/06/06 06:12:23;;;;;;;8.18;2.90;;;;;;;19.34;49.82;100536.22;4914042;29;20047;-72
2023/06/06 06:14:50;;;;;;;2.90;2.60;;;;;;;19.55;48.96;100532.63;4911086;29;20143;-70
2023/06/06 06:17:20;;;;;;;7.25;3.08;;;;;;;19.90;49.54;100527.03;4923004;29;20051;-72
2023/06/06 06:19:47;;;;;;;4.07;2.72;;;;;;;20.32;46.11;100527.06;4897997;29;20044;-73
2023/06/06 06:22:14;;;;;;;3.30;2.55;;;;;;;20.81;44.76;100530.94;4914941;29;20047;-71
2023/06/06 06:24:41;;;;;;;3.42;2.40;;;;;;;21.28;44.07;100542.91;4905460;29;20048;-72
2023/06/06 06:27:08;;;;;;;4.30;2.60;;;;;;;21.61;42.84;100530.94;4920015;29;20054;-71
2023/06/06 06:29:35;;;;;;;8.38;2.50;;;;;;;21.92;41.46;100537.94;4917312;29;20140;-72
2023/06/06 06:32:04;;;;;;;5.57;2.55;;;;;;;22.05;40.97;100526.88;4904453;29;20040;-72
2023/06/06 06:34:33;;;;;;;2.45;2.20;;;;;;;22.18;41.40;100529.31;4907168;29;20463;-71
2023/06/06 06:37:01;;;;;;;9.50;3.13;;;;;;;22.29;39.68;100527.31;4915811;29;20055;-71
2023/06/06 06:39:28;;;;;;;4.70;2.58;;;;;;;22.41;39.60;100536.09;4921467;29;20115;-71
2023/06/06 06:41:56;;;;;;;4.97;2.53;;;;;;;22.51;40.88;100545.00;4925907;29;20044;-71
2023/06/06 06:44:23;;;;;;;3.65;2.80;;;;;;;22.71;40.21;100532.31;4924666;29;20582;-70
2023/06/06 06:46:50;;;;;;;3.85;2.58;;;;;;;23.08;39.56;100543.19;4916292;29;20054;-71
2023/06/06 06:49:17;;;;;;;3.88;2.28;;;;;;;23.35;39.59;100534.22;4925880;29;20043;-72
2023/06/06 06:51:44;;;;;;;3.70;2.42;;;;;;;23.67;38.73;100547.28;4925946;29;20162;-72
2023/06/06 06:54:13;;;;;;;4.00;2.20;;;;;;;23.91;37.86;100546.72;4912902;29;20830;-71
2023/06/06 06:56:43;;;;;;;5.90;2.67;;;;;;;23.85;37.13;100517.56;4927882;29;20106;-71
2023/06/06 06:59:10;;;;;;;;;;;;;;;24.25;38.30;100542.31;4913240;29;20513;-70
2023/06/06 07:01:37;;;;;;;6.50;2.60;;;;;;;24.40;36.63;100553.41;4911434;29;19931;-71
2023/06/06 07:04:05;;;;;;;5.45;2.58;;;;;;;24.24;36.71;100547.91;4925072;29;20044;-71
2023/06/06 07:06:34;;;;;;;3.53;2.20;;;;;;;24.12;36.98;100556.19;4927059;29;20217;-71
2023/06/06 07:09:05;;;;;;;4.18;2.28;;;;;;;24.22;38.90;100549.88;4917314;29;20059;-71
2023/06/06 07:11:33;;;;;;;3.25;2.38;;;;;;;24.43;36.48;100548.53;4910148;29;20058;-71
2023/06/06 07:13:59;;;;;;;4.35;2.75;;;;;;;24.63;37.79;100545.66;4927275;29;20052;-71
2023/06/06 07:16:26;;;;;;;3.72;2.28;;;;;;;24.66;34.92;100540.78;4923397;29;20060;-70
2023/06/06 07:18:55;;;;;;;4.93;2.28;;;;;;;24.57;35.17;100541.72;4908302;29;20044;-70
2023/06/06 07:21:22;;;;;;;5.28;2.60;;;;;;;24.74;34.87;100551.63;4926350;29;20147;-69
2023/06/06 07:23:52;;;;;;;4.88;2.58;;;;;;;24.91;34.73;100546.31;4935508;29;20422;-70
2023/06/06 07:26:21;;;;;;;2.90;2.60;;;;;;;25.02;34.75;100544.25;4931845;29;20120;-70
2023/06/06 07:28:47;;;;;;;5.13;2.28;;;;;;;24.89;35.01;100540.22;4931349;29;20468;-72
2023/06/06 07:31:15;;;;;;;4.40;2.45;;;;;;;24.91;34.35;100555.31;4929578;29;20052;-72
2023/06/06 07:33:43;;;;;;;5.07;2.45;;;;;;;24.87;36.62;100545.78;4910620;29;20056;-70
2023/06/06 07:36:11;;;;;;;5.10;2.30;;;;;;;24.97;36.06;100530.31;4924991;29;20043;-72
2023/06/06 07:38:39;;;;;;;3.10;2.40;;;;;;;25.25;33.91;100549.94;4926350;29;20398;-71
2023/06/06 07:41:06;;;;;;;8.45;3.22;;;;;;;25.31;33.62;100552.00;4923868;29;20043;-70
2023/06/06 07:43:33;;;;;;;4.65;2.55;;;;;;;25.28;34.15;100549.59;4914545;29;20513;-72
2023/06/06 07:46:00;;;;;;;4.18;2.60;;;;;;;25.32;34.01;100551.00;4933683;29;20044;-71
2023/06/06 07:48:31;;;;;;;5.73;2.60;;;;;;;25.09;33.61;100525.47;4923706;29;20054;-71
2023/06/06 07:50:59;;;;;;;3.35;2.20;;;;;;;25.42;34.50;100540.84;4912586;29;20044;-70
2023/06/06 07:53:26;;;;;;;3.83;2.75;;;;;;;25.68;33.20;100540.78;4901525;29;20445;-71
2023/06/06 07:55:53;;;;;;;5.07;2.38;;;;;;;25.83;32.14;100532.84;4914033;29;20418;-71
2023/06/06 07:58:25;;;;;;;5.13;2.60;;;;;;;25.85;31.67;100534.38;4930363;29;20093;-72
2023/06/06 08:00:52;;;;;;;3.45;2.30;;;;;;;25.85;31.55;100539.78;4912174;29;20048;-71
2023/06/06 08:03:19;;;;;;;4.75;2.63;;;;;;;25.88;31.91;100538.63;4932630;29;20528;-71
2023/06/06 08:05:47;;;;;;;5.70;2.63;;;;;;;25.86;32.30;100537.94;4915446;29;20049;-71
2023/06/06 08:08:16;;;;;;;3.95;2.20;;;;;;;25.82;32.44;100542.84;4916211;29;20601;-71
2023/06/06 08:10:43;;;;;;;4.55;2.80;;;;;;;25.86;32.38;100537.94;4914780;29;20052;-71
2023/06/06 08:13:09;;;;;;;3.92;2.70;;;;;;;25.87;30.76;100547.78;4927139;29;20055;-69
2023/06/06 08:15:36;;;;;;;4.85;2.72;;;;;;;25.94;30.93;100542.53;4928156;29;20148;-70
2023/06/06 08:18:03;;;;;;;4.47;2.85;;;;;;;25.95;31.96;100534.22;4926411;29;20047;-72
2023/06/06 08:20:30;;;;;;;7.95;6.63;;;;;;;26.06;31.55;100533.91;4929401;29;20048;-72
2023/06/06 08:22:57;;;;;;;7.80;2.70;;;;;;;25.93;32.62;100530.00;4922411;29;20080;-71
2023/06/06 08:25:25;;;;;;;4.10;2.53;;;;;;;25.89;32.49;100532.19;4922458;29;20141;-71
2023/06/06 08:27:54;;;;;;;;;;;;;;;25.96;32.65;100529.66;4905960;29;20541;-72
2023/06/06 08:30:23;;;;;;;4.15;2.60;;;;;;;26.12;32.09;100522.38;4925698;29;19931;-69
2023/06/06 08:32:50;;;;;;;3.85;2.80;;;;;;;26.26;32.60;100525.44;4928278;29;20054;-71
2023/06/06 08:35:19;;;;;;;5.68;3.00;;;;;;;26.09;32.78;100516.44;4924014;29;20071;-71
2023/06/06 08:37:47;;;;;;;5.72;2.25;;;;;;;26.08;33.21;100537.28;4926115;29;20047;-72
2023/06/06 08:40:14;;;;;;;4.88;2.80;;;;;;;25.83;33.28;100525.53;4923325;29;20077;-71
2023/06/06 08:42:46;;;;;;;3.80;2.50;;;;;;;25.74;32.53;100523.84;4920413;29;20405;-69
2023/06/06 08:45:15;;;;;;;4.93;2.85;;;;;;;25.59;33.01;100524.63;4914941;29;20079;-72
2023/06/06 08:47:44;;;;;;;2.73;2.40;;;;;;;25.66;32.94;100518.38;4909147;29;20399;-69
2023/06/06 08:50:13;;;;;;;5.50;2.38;;;;;;;25.80;33.21;100530.47;4925096;29;22192;-70
2023/06/06 08:52:42;;;;;;;5.18;3.50;;;;;;;25.95;32.79;100520.66;4970646;23;20035;-70
2023/06/06 08:55:09;;;;;;;5.60;2.60;;;;;;;26.19;30.86;100531.53;4932787;29;20229;-72
2023/06/06 08:57:41;;;;;;;3.67;2.55;;;;;;;26.15;30.43;100527.44;4944927;29;20053;-72
2023/06/06 09:00:18;;;;;;;5.00;2.70;;;;;;;26.24;30.89;100528.31;4933087;29;20046;-72
2023/06/06 09:02:48;;;;;;;4.40;2.97;;;;;;;26.32;30.38;100522.03;4946837;28;20043;-71
2023/06/06 09:05:17;;;;;;;;;;;;;;;26.35;29.52;100532.56;4944180;29;20051;-71
2023/06/06 09:07:46;;;;;;;3.75;2.45;;;;;;;26.29;30.33;100525.94;4931901;29;19942;-72
2023/06/06 09:10:15;;;;;;;3.90;2.88;;;;;;;26.57;30.16;100531.88;4942909;29;20059;-73
2023/06/06 09:12:45;;;;;;;6.10;2.80;;;;;;;26.82;29.32;100528.09;4944353;29;20102;-72
2023/06/06 09:15:14;;;;;;;5.78;2.55;;;;;;;26.63;30.44;100527.63;4930801;29;20074;-72
2023/06/06 09:17:46;;;;;;;4.65;2.60;;;;;;;26.48;31.21;100533.75;4940590;29;20052;-73
2023/06/06 09:20:15;;;;;;;5.30;2.78;;;;;;;26.02;32.09;100527.09;4936139;29;20059;-72
2023/06/06 09:22:45;;;;;;;4.45;2.80;;;;;;;25.75;32.45;100532.84;4934754;29;20059;-75
2023/06/06 09:25:24;;;;;;;3.88;3.00;;;;;;;25.49;32.92;100533.78;4948547;29;20055;-72
2023/06/06 09:28:02;;;;;;;3.75;2.60;;;;;;;24.98;32.86;100533.88;4949171;29;20047;-74
2023/06/06 09:30:31;;;;;;;4.30;2.45;;;;;;;24.73;32.79;100522.00;4932983;29;20071;-76
2023/06/06 09:33:01;;;;;;;5.03;3.10;;;;;;;24.56;33.95;100521.06;4948431;29;20044;-74
2023/06/06 09:35:33;;;;;;;3.35;2.60;;;;;;;24.57;33.32;100524.59;4946447;29;20058;-75
2023/06/06 09:38:18;;;;;;;5.68;2.85;;;;;;;24.61;34.72;100509.75;4950023;28;20043;-75
2023/06/06 09:40:52;;;;;;;4.28;3.00;;;;;;;24.68;35.04;100527.06;4936810;29;20055;-73
2023/06/06 09:43:23;;;;;;;4.80;2.80;;;;;;;24.61;35.92;100512.47;4918094;29;20054;-74
2023/06/06 09:45:51;;;;;;;6.85;3.10;;;;;;;24.59;36.37;100520.75;4938248;29;20428;-73
2023/06/06 09:48:23;;;;;;;5.50;3.10;;;;;;;24.58;36.95;100524.44;4938203;29;20047;-74
2023/06/06 09:50:50;;;;;;;6.10;3.25;;;;;;;24.54;36.79;100523.09;4940357;29;20051;-74
2023/06/06 09:53:26;;;;;;;4.75;3.10;;;;;;;24.57;36.89;100521.91;4957132;28;20080;-73
2023/06/06 09:56:01;;;;;;;3.65;2.80;;;;;;;24.51;35.12;100509.03;4930693;28;20071;-74
2023/06/06 09:58:32;;;;;;;4.72;2.80;;;;;;;24.46;34.98;100512.19;4946325;29;20067;-74
2023/06/06 10:01:01;;;;;;;3.50;3.05;;;;;;;24.38;35.78;100491.34;4944601;29;20417;-75
2023/06/06 10:03:32;;;;;;;5.07;3.00;;;;;;;24.42;35.22;100487.28;4930996;29;20077;-75
2023/06/06 10:06:03;;;;;;;4.85;3.15;;;;;;;24.51;35.68;100501.75;4945110;29;20074;-75
2023/06/06 10:08:30;;;;;;;8.27;3.42;;;;;;;24.53;35.34;100497.03;4932564;29;20114;-74
2023/06/06 10:10:58;;;;;;;4.47;3.10;;;;;;;24.63;35.81;100518.56;4916899;29;20054;-74
2023/06/06 10:13:26;;;;;;;5.45;3.30;;;;;;;24.72;35.59;100513.03;4938843;29;20043;-74
2023/06/06 10:15:58;;;;;;;3.05;2.75;;;;;;;24.76;36.38;100511.72;4937072;29;20526;-75
2023/06/06 10:18:26;;;;;;;4.97;3.20;;;;;;;24.79;36.53;100505.97;4909512;29;20052;-75
2023/06/06 10:20:54;;;;;;;4.47;2.97;;;;;;;24.90;36.94;100506.69;4930704;29;20454;-74
2023/06/06 10:23:21;;;;;;;5.82;2.92;;;;;;;24.95;35.69;100499.84;4923756;29;20057;-75
2023/06/06 10:25:50;;;;;;;3.88;2.92;;;;;;;25.00;35.91;100502.06;4931262;29;20043;-74
2023/06/06 10:28:29;;;;;;;4.22;3.25;;;;;;;25.06;36.15;100506.81;4929319;29;20073;-72
2023/06/06 10:31:03;;;;;;;5.43;3.13;;;;;;;25.02;35.21;100491.91;4946909;29;20058;-76
2023/06/06 10:33:44;;;;;;;7.68;3.15;;;;;;;25.11;35.99;100507.19;4924449;29;20043;-73
2023/06/06 10:36:15;;;;;;;4.28;2.97;;;;;;;24.99;36.60;100486.81;4928722;29;20051;-74
2023/06/06 10:39:23;;;;;;;7.85;3.65;;;;;;;25.08;36.51;100497.50;4933688;29;20135;-72
2023/06/06 10:42:05;;;;;;;4.00;3.60;;;;;;;25.21;36.43;100497.03;4926100;29;20054;-74
2023/06/06 10:44:48;;;;;;;4.43;3.10;;;;;;;25.26;35.92;100489.28;4929344;29;20063;-73
2023/06/06 10:47:21;;;;;;;5.63;3.42;;;;;;;25.35;36.02;100491.00;4936622;29;24864;-75
2023/06/06 10:50:11;;;;;;;7.88;3.50;;;;;;;25.40;36.50;100491.34;4943687;29;20043;-71
2023/06/06 10:52:52;;;;;;;5.30;3.42;;;;;;;25.55;36.40;100479.88;4942648;29;20493;-75
2023/06/06 10:55:39;;;;;;;4.72;3.30;;;;;;;25.89;35.86;100477.91;4921768;29;20050;-73
2023/06/06 10:58:13;;;;;;;6.88;3.45;;;;;;;26.13;34.70;100482.50;4947566;29;20118;-72
2023/06/06 11:00:45;;;;;;;4.43;3.30;;;;;;;26.07;33.58;100483.19;4916326;29;20151;-72
2023/06/06 11:03:15;;;;;;;4.88;3.72;;;;;;;25.93;32.41;100479.28;4938208;29;20047;-72
2023/06/06 11:06:01;;;;;;;5.50;3.28;;;;;;;25.99;33.15;100489.44;4940522;28;20098;-72
2023/06/06 11:08:37;;;;;;;8.25;3.55;;;;;;;25.86;33.91;100489.09;4930256;29;20051;-73
2023/06/06 11:11:21;;;;;;;6.68;3.47;;;;;;;25.86;33.75;100478.25;4918695;29;20098;-72
2023/06/06 11:14:01;;;;;;;4.88;3.22;;;;;;;25.95;33.68;100476.41;4940197;29;20051;-73
2023/06/06 11:16:44;;;;;;;4.55;3.50;;;;;;;26.09;33.57;100476.56;4933100;29;20055;-73
2023/06/06 11:19:15;;;;;;;5.72;3.38;;;;;;;26.15;34.05;100477.75;4927229;29;20450;-73
2023/06/06 11:21:48;;;;;;;6.15;3.35;;;;;;;26.17;33.70;100465.69;4944067;28;20043;-73
2023/06/06 11:24:21;;;;;;;4.30;3.50;;;;;;;26.19;34.25;100460.09;4925267;29;20142;-71
2023/06/06 11:26:50;;;;;;;5.53;3.10;;;;;;;26.18;32.68;100469.25;4910493;29;20048;-75
2023/06/06 11:29:20;;;;;;;7.00;3.20;;;;;;;26.03;31.79;100466.38;4932520;29;20057;-70
2023/06/06 11:31:47;;;;;;;3.42;3.03;;;;;;;25.98;33.01;100460.59;4931102;29;20488;-73
2023/06/06 11:34:15;;;;;;;6.00;3.47;;;;;;;25.99;31.56;100456.88;4931125;29;20051;-74
2023/06/06 11:36:44;;;;;;;4.35;3.30;;;;;;;26.08;31.73;100455.03;4934014;29;20107;-73